Alsace — PB4786 — position and weather

sailwx.info

Track history (hours):
 
Tides and Currents Weather Stations Pressure Air Temp Water Temp Dewpoint Dewpoint Depression Visibility Wind Speed Wind Dir Waves Ship Positions

Alsace

Last reported at 2015-Mar-27 10:26 UTC. Time now 2015-Mar-27 12:00 UTC.
Position N 51°52' E 005°50'.

Length 178 m.

Type: Ship. MMSI: 244660556.

Date/timePositionNaut miles runAvg speedWind from/ knotsBaromVisibWave heightAir tempDewpointWater temp
2015-Mar-27 10:26N 51°52' E 005°50'0 0.1
2015-Mar-27 08:18N 51°52' E 005°50'0 0.0
2015-Mar-27 06:18N 51°52' E 005°50'0 0.0
2015-Mar-26 23:25N 51°52' E 005°50'49 7.2
2015-Mar-26 16:33N 51°16' E 006°43'6 6.0
2015-Mar-26 15:33N 51°10' E 006°48'17 7.4
2015-Mar-26 13:17N 50°55' E 006°58'110 7.5
2015-Mar-25 22:33N 49°21' E 008°30'8 8.0
2015-Mar-25 21:33N 49°14' E 008°24'1010.2
2015-Mar-25 20:33N 49°04' E 008°20'1010.1
2015-Mar-25 19:32N 48°56' E 008°11'7 6.4
2015-Mar-25 18:29N 48°50' E 008°07'7 6.5
2015-Mar-25 17:23N 48°45' E 007°58'5 5.8
2015-Mar-25 16:32N 48°41' E 007°55'64 3.0
2015-Mar-24 19:33N 47°39' E 007°32'5 4.7
2015-Mar-24 18:33N 47°35' E 007°35'0 0.2
2015-Mar-24 17:33N 47°35' E 007°35'0 0.0
2015-Mar-24 16:29N 47°35' E 007°35'0 0.0
2015-Mar-24 15:30N 47°35' E 007°35'0 0.0
2015-Mar-24 14:33N 47°35' E 007°35'0 0.0
2015-Mar-24 13:06N 47°35' E 007°35'0 0.0
2015-Mar-24 11:20N 47°35' E 007°35'0 0.2
2015-Mar-24 10:28N 47°35' E 007°35'0 0.1
2015-Mar-24 09:20N 47°35' E 007°35'0 0.2
2015-Mar-24 08:33N 47°35' E 007°35'1 1.0
2015-Mar-24 07:28N 47°36' E 007°35'0 0.0
2015-Mar-24 06:24N 47°36' E 007°35'0 0.0
2015-Mar-24 05:32N 47°36' E 007°35'0 0.0
2015-Mar-24 03:20N 47°36' E 007°35'4 3.6
2015-Mar-24 02:09N 47°40' E 007°31'63 2.8
2015-Mar-23 04:04N 48°40' E 007°54'1 2.8
2015-Mar-23 03:33N 48°42' E 007°55'7 7.3
2015-Mar-23 02:33N 48°47' E 008°02'5 4.8
2015-Mar-23 01:33N 48°51' E 008°07'4 4.4
2015-Mar-23 00:33N 48°55' E 008°10'4 4.3
2015-Mar-22 23:33N 48°58' E 008°14'4 4.4
2015-Mar-22 22:33N 49°02' E 008°18'5 4.8
2015-Mar-22 21:33N 49°06' E 008°22'5 4.5
2015-Mar-22 20:33N 49°10' E 008°22'5 4.5
2015-Mar-22 19:33N 49°15' E 008°24'5 4.6
2015-Mar-22 18:31N 49°18' E 008°29'4 4.1
2015-Mar-22 17:32N 49°22' E 008°30'21 4.9
2015-Mar-22 13:11N 49°44' E 008°27'8 4.9
2015-Mar-22 11:32N 49°51' E 008°23'82 4.3
2015-Mar-21 16:31N 50°54' E 006°59'14 4.6
2015-Mar-21 13:33N 51°07' E 006°53'3 3.2
2015-Mar-21 12:33N 51°09' E 006°48'4 4.3
2015-Mar-21 11:33N 51°12' E 006°44'3 3.2
2015-Mar-21 10:33N 51°15' E 006°45'39 4.2
2015-Mar-21 01:22N 51°49' E 006°16'7 6.5
2015-Mar-21 00:16N 51°51' E 006°05'10 5.1
2015-Mar-20 22:24N 51°52' E 005°50'0 0.0
2015-Mar-20 21:33N 51°52' E 005°50'0 0.0
2015-Mar-20 20:31N 51°52' E 005°50'1 0.5
2015-Mar-20 18:33N 51°52' E 005°48'7 6.7
2015-Mar-20 17:30N 51°54' E 005°37'6 6.7
2015-Mar-20 16:33N 51°53' E 005°27'6 6.3
2015-Mar-20 15:33N 51°48' E 005°20'6 6.5
2015-Mar-20 14:33N 51°49' E 005°10'7 7.1
2015-Mar-20 13:33N 51°49' E 004°58'8 7.7
2015-Mar-20 12:33N 51°49' E 004°46'7 6.6
2015-Mar-20 11:33N 51°53' E 004°37'6 5.9
2015-Mar-20 10:33N 51°54' E 004°28'2 2.2
2015-Mar-20 09:31N 51°53' E 004°25'0 0.0
2015-Mar-20 08:33N 51°53' E 004°25'0 0.0
2015-Mar-20 07:33N 51°53' E 004°25'0 0.5
2015-Mar-20 06:33N 51°53' E 004°25'0 0.0
2015-Mar-20 05:32N 51°53' E 004°25'0 0.0
2015-Mar-20 04:33N 51°53' E 004°25'0 0.0
2015-Mar-20 03:33N 51°53' E 004°25'0 0.0
2015-Mar-20 02:33N 51°53' E 004°25'0 0.0
2015-Mar-20 01:33N 51°53' E 004°25'0 0.0
2015-Mar-20 00:32N 51°53' E 004°25'0 0.0
2015-Mar-19 23:33N 51°53' E 004°25'0 0.0
2015-Mar-19 22:33N 51°53' E 004°25'0 0.0
2015-Mar-19 21:33N 51°53' E 004°25'0 0.0
2015-Mar-19 20:33N 51°53' E 004°25'0 0.0
2015-Mar-19 19:33N 51°53' E 004°25'0 0.0
2015-Mar-19 18:33N 51°53' E 004°25'0 0.0
2015-Mar-19 17:33N 51°53' E 004°25'0 0.0
2015-Mar-19 16:33N 51°53' E 004°25'0 0.0
2015-Mar-19 15:33N 51°53' E 004°25'5 5.1
2015-Mar-19 14:33N 51°54' E 004°17'8 8.3
2015-Mar-19 13:33N 51°58' E 004°06'1 1.0
2015-Mar-19 12:33N 51°58' E 004°04'0 0.0
2015-Mar-19 11:33N 51°58' E 004°04'1 1.1
2015-Mar-19 10:33N 51°59' E 004°04'10 9.8
2015-Mar-19 09:33N 51°54' E 004°18'4 4.4
2015-Mar-19 08:33N 51°54' E 004°25'0 0.5
2015-Mar-19 07:33N 51°54' E 004°26'1 0.7
2015-Mar-19 06:34N 51°54' E 004°25'1 0.6
2015-Mar-19 05:34N 51°54' E 004°24'0 0.0
2015-Mar-19 04:34N 51°54' E 004°24'0 0.0
2015-Mar-19 03:33N 51°54' E 004°24'0 0.0
2015-Mar-19 02:34N 51°54' E 004°24'0 0.0
2015-Mar-19 01:33N 51°54' E 004°24'0 0.0
2015-Mar-19 00:33N 51°54' E 004°24'0 0.0
2015-Mar-18 23:34N 51°54' E 004°24'0 0.0
2015-Mar-18 22:33N 51°54' E 004°24'0 0.0
2015-Mar-18 21:33N 51°54' E 004°24'0 0.0
2015-Mar-18 20:34N 51°54' E 004°24'4 1.9
2015-Mar-18 18:33N 51°55' E 004°30'7 6.8
2015-Mar-18 17:33N 51°51' E 004°39'0 0.0
2015-Mar-18 16:33N 51°51' E 004°39'0 0.0
2015-Mar-18 15:34N 51°51' E 004°39'0 0.0
2015-Mar-18 14:34N 51°51' E 004°39'0 0.0
2015-Mar-18 13:34N 51°51' E 004°39'0 0.0
2015-Mar-18 12:34N 51°51' E 004°39'0 0.0
2015-Mar-18 11:34N 51°51' E 004°39'0 0.0
2015-Mar-18 10:33N 51°51' E 004°39'0 0.0
2015-Mar-18 09:33N 51°51' E 004°39'0 0.0
2015-Mar-18 08:34N 51°51' E 004°39'0 0.0
2015-Mar-18 07:33N 51°51' E 004°39'0 0.0
2015-Mar-18 06:33N 51°51' E 004°39'0 0.0
2015-Mar-18 05:33N 51°51' E 004°39'0 0.0
2015-Mar-18 04:33N 51°51' E 004°39'0 0.0
2015-Mar-18 03:33N 51°51' E 004°39'0 0.0
2015-Mar-18 02:34N 51°51' E 004°39'0 0.0
2015-Mar-18 01:33N 51°51' E 004°39'0 0.0
2015-Mar-18 00:34N 51°51' E 004°39'0 0.0
2015-Mar-17 23:33N 51°51' E 004°39'0 0.0
2015-Mar-17 22:34N 51°51' E 004°39'0 0.0
2015-Mar-17 21:34N 51°51' E 004°39'0 0.0
2015-Mar-17 20:34N 51°51' E 004°39'0 0.0
2015-Mar-17 19:34N 51°51' E 004°39'0 0.0
2015-Mar-17 18:33N 51°51' E 004°39'0 0.0
2015-Mar-17 17:33N 51°51' E 004°39'0 0.0
2015-Mar-17 16:34N 51°51' E 004°39'0 0.0
2015-Mar-17 15:34N 51°51' E 004°39'0 0.1
2015-Mar-17 14:34N 51°51' E 004°39'0 0.0
2015-Mar-17 13:34N 51°51' E 004°39'0 0.0
2015-Mar-17 12:34N 51°51' E 004°39'0 0.0
2015-Mar-17 11:33N 51°51' E 004°39'0 0.0
2015-Mar-17 10:34N 51°51' E 004°39'  
Track history (hours):
 
Tides and Currents Weather Stations Pressure Air Temp Water Temp Dewpoint Dewpoint Depression Visibility Wind Speed Wind Dir Waves Ship Positions

Alsace

Last reported at 2015-Mar-27 10:26 UTC. Time now 2015-Mar-27 12:00 UTC.
Position N 51°52' E 005°50'.

Length 178 m.

Type: Ship. MMSI: 244660556.

Date/timePositionNaut miles runAvg speedWind from/ knotsBaromVisibWave heightAir tempDewpointWater temp
2015-Mar-27 10:26N 51°52' E 005°50'0 0.1
2015-Mar-27 08:18N 51°52' E 005°50'0 0.0
2015-Mar-27 06:18N 51°52' E 005°50'0 0.0
2015-Mar-26 23:25N 51°52' E 005°50'49 7.2
2015-Mar-26 16:33N 51°16' E 006°43'6 6.0
2015-Mar-26 15:33N 51°10' E 006°48'17 7.4
2015-Mar-26 13:17N 50°55' E 006°58'110 7.5
2015-Mar-25 22:33N 49°21' E 008°30'8 8.0
2015-Mar-25 21:33N 49°14' E 008°24'1010.2
2015-Mar-25 20:33N 49°04' E 008°20'1010.1
2015-Mar-25 19:32N 48°56' E 008°11'7 6.4
2015-Mar-25 18:29N 48°50' E 008°07'7 6.5
2015-Mar-25 17:23N 48°45' E 007°58'5 5.8
2015-Mar-25 16:32N 48°41' E 007°55'64 3.0
2015-Mar-24 19:33N 47°39' E 007°32'5 4.7
2015-Mar-24 18:33N 47°35' E 007°35'0 0.2
2015-Mar-24 17:33N 47°35' E 007°35'0 0.0
2015-Mar-24 16:29N 47°35' E 007°35'0 0.0
2015-Mar-24 15:30N 47°35' E 007°35'0 0.0
2015-Mar-24 14:33N 47°35' E 007°35'0 0.0
2015-Mar-24 13:06N 47°35' E 007°35'0 0.0
2015-Mar-24 11:20N 47°35' E 007°35'0 0.2
2015-Mar-24 10:28N 47°35' E 007°35'0 0.1
2015-Mar-24 09:20N 47°35' E 007°35'0 0.2
2015-Mar-24 08:33N 47°35' E 007°35'1 1.0
2015-Mar-24 07:28N 47°36' E 007°35'0 0.0
2015-Mar-24 06:24N 47°36' E 007°35'0 0.0
2015-Mar-24 05:32N 47°36' E 007°35'0 0.0
2015-Mar-24 03:20N 47°36' E 007°35'4 3.6
2015-Mar-24 02:09N 47°40' E 007°31'63 2.8
2015-Mar-23 04:04N 48°40' E 007°54'1 2.8
2015-Mar-23 03:33N 48°42' E 007°55'7 7.3
2015-Mar-23 02:33N 48°47' E 008°02'5 4.8
2015-Mar-23 01:33N 48°51' E 008°07'4 4.4
2015-Mar-23 00:33N 48°55' E 008°10'4 4.3
2015-Mar-22 23:33N 48°58' E 008°14'4 4.4
2015-Mar-22 22:33N 49°02' E 008°18'5 4.8
2015-Mar-22 21:33N 49°06' E 008°22'5 4.5
2015-Mar-22 20:33N 49°10' E 008°22'5 4.5
2015-Mar-22 19:33N 49°15' E 008°24'5 4.6
2015-Mar-22 18:31N 49°18' E 008°29'4 4.1
2015-Mar-22 17:32N 49°22' E 008°30'21 4.9
2015-Mar-22 13:11N 49°44' E 008°27'8 4.9
2015-Mar-22 11:32N 49°51' E 008°23'82 4.3
2015-Mar-21 16:31N 50°54' E 006°59'14 4.6
2015-Mar-21 13:33N 51°07' E 006°53'3 3.2
2015-Mar-21 12:33N 51°09' E 006°48'4 4.3
2015-Mar-21 11:33N 51°12' E 006°44'3 3.2
2015-Mar-21 10:33N 51°15' E 006°45'39 4.2
2015-Mar-21 01:22N 51°49' E 006°16'7 6.5
2015-Mar-21 00:16N 51°51' E 006°05'10 5.1
2015-Mar-20 22:24N 51°52' E 005°50'0 0.0
2015-Mar-20 21:33N 51°52' E 005°50'0 0.0
2015-Mar-20 20:31N 51°52' E 005°50'1 0.5
2015-Mar-20 18:33N 51°52' E 005°48'7 6.7
2015-Mar-20 17:30N 51°54' E 005°37'6 6.7
2015-Mar-20 16:33N 51°53' E 005°27'6 6.3
2015-Mar-20 15:33N 51°48' E 005°20'6 6.5
2015-Mar-20 14:33N 51°49' E 005°10'7 7.1
2015-Mar-20 13:33N 51°49' E 004°58'8 7.7
2015-Mar-20 12:33N 51°49' E 004°46'7 6.6
2015-Mar-20 11:33N 51°53' E 004°37'6 5.9
2015-Mar-20 10:33N 51°54' E 004°28'2 2.2
2015-Mar-20 09:31N 51°53' E 004°25'0 0.0
2015-Mar-20 08:33N 51°53' E 004°25'0 0.0
2015-Mar-20 07:33N 51°53' E 004°25'0 0.5
2015-Mar-20 06:33N 51°53' E 004°25'0 0.0
2015-Mar-20 05:32N 51°53' E 004°25'0 0.0
2015-Mar-20 04:33N 51°53' E 004°25'0 0.0
2015-Mar-20 03:33N 51°53' E 004°25'0 0.0
2015-Mar-20 02:33N 51°53' E 004°25'0 0.0
2015-Mar-20 01:33N 51°53' E 004°25'0 0.0
2015-Mar-20 00:32N 51°53' E 004°25'0 0.0
2015-Mar-19 23:33N 51°53' E 004°25'0 0.0
2015-Mar-19 22:33N 51°53' E 004°25'0 0.0
2015-Mar-19 21:33N 51°53' E 004°25'0 0.0
2015-Mar-19 20:33N 51°53' E 004°25'0 0.0
2015-Mar-19 19:33N 51°53' E 004°25'0 0.0
2015-Mar-19 18:33N 51°53' E 004°25'0 0.0
2015-Mar-19 17:33N 51°53' E 004°25'0 0.0
2015-Mar-19 16:33N 51°53' E 004°25'0 0.0
2015-Mar-19 15:33N 51°53' E 004°25'5 5.1
2015-Mar-19 14:33N 51°54' E 004°17'8 8.3
2015-Mar-19 13:33N 51°58' E 004°06'1 1.0
2015-Mar-19 12:33N 51°58' E 004°04'0 0.0
2015-Mar-19 11:33N 51°58' E 004°04'1 1.1
2015-Mar-19 10:33N 51°59' E 004°04'10 9.8
2015-Mar-19 09:33N 51°54' E 004°18'4 4.4
2015-Mar-19 08:33N 51°54' E 004°25'0 0.5
2015-Mar-19 07:33N 51°54' E 004°26'1 0.7
2015-Mar-19 06:34N 51°54' E 004°25'1 0.6
2015-Mar-19 05:34N 51°54' E 004°24'0 0.0
2015-Mar-19 04:34N 51°54' E 004°24'0 0.0
2015-Mar-19 03:33N 51°54' E 004°24'0 0.0
2015-Mar-19 02:34N 51°54' E 004°24'0 0.0
2015-Mar-19 01:33N 51°54' E 004°24'0 0.0
2015-Mar-19 00:33N 51°54' E 004°24'0 0.0
2015-Mar-18 23:34N 51°54' E 004°24'0 0.0
2015-Mar-18 22:33N 51°54' E 004°24'0 0.0
2015-Mar-18 21:33N 51°54' E 004°24'0 0.0
2015-Mar-18 20:34N 51°54' E 004°24'4 1.9
2015-Mar-18 18:33N 51°55' E 004°30'7 6.8
2015-Mar-18 17:33N 51°51' E 004°39'0 0.0
2015-Mar-18 16:33N 51°51' E 004°39'0 0.0
2015-Mar-18 15:34N 51°51' E 004°39'0 0.0
2015-Mar-18 14:34N 51°51' E 004°39'0 0.0
2015-Mar-18 13:34N 51°51' E 004°39'0 0.0
2015-Mar-18 12:34N 51°51' E 004°39'0 0.0
2015-Mar-18 11:34N 51°51' E 004°39'0 0.0
2015-Mar-18 10:33N 51°51' E 004°39'0 0.0
2015-Mar-18 09:33N 51°51' E 004°39'0 0.0
2015-Mar-18 08:34N 51°51' E 004°39'0 0.0
2015-Mar-18 07:33N 51°51' E 004°39'0 0.0
2015-Mar-18 06:33N 51°51' E 004°39'0 0.0
2015-Mar-18 05:33N 51°51' E 004°39'0 0.0
2015-Mar-18 04:33N 51°51' E 004°39'0 0.0
2015-Mar-18 03:33N 51°51' E 004°39'0 0.0
2015-Mar-18 02:34N 51°51' E 004°39'0 0.0
2015-Mar-18 01:33N 51°51' E 004°39'0 0.0
2015-Mar-18 00:34N 51°51' E 004°39'0 0.0
2015-Mar-17 23:33N 51°51' E 004°39'0 0.0
2015-Mar-17 22:34N 51°51' E 004°39'0 0.0
2015-Mar-17 21:34N 51°51' E 004°39'0 0.0
2015-Mar-17 20:34N 51°51' E 004°39'0 0.0
2015-Mar-17 19:34N 51°51' E 004°39'0 0.0
2015-Mar-17 18:33N 51°51' E 004°39'0 0.0
2015-Mar-17 17:33N 51°51' E 004°39'0 0.0
2015-Mar-17 16:34N 51°51' E 004°39'0 0.0
2015-Mar-17 15:34N 51°51' E 004°39'0 0.1
2015-Mar-17 14:34N 51°51' E 004°39'0 0.0
2015-Mar-17 13:34N 51°51' E 004°39'0 0.0
2015-Mar-17 12:34N 51°51' E 004°39'0 0.0
2015-Mar-17 11:33N 51°51' E 004°39'0 0.0
2015-Mar-17 10:34N 51°51' E 004°39'  

Dump ship's entire track history